createdAt,value
2023-03-28T00:00:47.029Z,100223.42
2023-03-28T00:03:02.829Z,100221.56
2023-03-28T00:05:17.451Z,100218.83
2023-03-28T00:07:30.219Z,100215.58
2023-03-28T00:09:43.428Z,100215.23
2023-03-28T00:11:55.996Z,100213.20
2023-03-28T00:14:08.880Z,100212.69
2023-03-28T00:16:21.596Z,100210.11
2023-03-28T00:18:37.651Z,100215.91
2023-03-28T00:20:50.286Z,100211.47
2023-03-28T00:23:04.098Z,100213.36
2023-03-28T00:25:16.767Z,100216.45
2023-03-28T00:27:29.326Z,100209.10
2023-03-28T00:29:42.064Z,100212.15
2023-03-28T00:31:54.615Z,100211.29
2023-03-28T00:34:08.247Z,100215.59
2023-03-28T00:36:26.679Z,100216.95
2023-03-28T00:38:39.929Z,100213.88
2023-03-28T00:40:56.030Z,100216.11
2023-03-28T00:43:13.529Z,100209.95
2023-03-28T00:45:27.097Z,100208.75
2023-03-28T00:47:46.106Z,100207.23
2023-03-28T00:50:09.089Z,100204.31
2023-03-28T00:52:24.267Z,100206.36
2023-03-28T00:54:40.274Z,100208.41
2023-03-28T00:56:57.102Z,100202.08
2023-03-28T00:59:15.839Z,100204.84
2023-03-28T01:01:28.473Z,100200.04
2023-03-28T01:03:46.244Z,100202.10
2023-03-28T01:06:02.157Z,100201.40
2023-03-28T01:08:21.106Z,100201.39
2023-03-28T01:10:33.715Z,100196.57
2023-03-28T01:12:46.416Z,100200.32
2023-03-28T01:15:00.843Z,100197.56
2023-03-28T01:17:15.943Z,100197.91
2023-03-28T01:20:03.536Z,100197.19
2023-03-28T01:22:57.261Z,100195.31
2023-03-28T01:25:38.398Z,100188.48
2023-03-28T01:28:05.474Z,100186.29
2023-03-28T01:30:17.970Z,100183.38
2023-03-28T01:32:58.166Z,100184.38
2023-03-28T01:35:47.731Z,100185.23
2023-03-28T01:38:34.294Z,100182.15
2023-03-28T01:41:02.645Z,100183.83
2023-03-28T01:43:23.900Z,100182.27
2023-03-28T01:45:55.334Z,100178.48
2023-03-28T01:48:13.984Z,100177.27
2023-03-28T01:50:34.384Z,100171.08
2023-03-28T01:53:03.428Z,100172.92
2023-03-28T01:55:34.154Z,100172.76
2023-03-28T01:58:06.996Z,100167.45
2023-03-28T02:00:34.842Z,100164.22
2023-03-28T02:02:56.860Z,100164.23
2023-03-28T02:05:15.609Z,100165.94
2023-03-28T02:07:29.371Z,100168.33
2023-03-28T02:09:44.932Z,100159.94
2023-03-28T02:12:01.082Z,100160.95
2023-03-28T02:14:22.731Z,100161.84
2023-03-28T02:16:38.609Z,100159.80
2023-03-28T02:18:56.100Z,100156.75
2023-03-28T02:21:17.218Z,100159.18
2023-03-28T02:23:36.634Z,100161.79
2023-03-28T02:25:49.738Z,100155.79
2023-03-28T02:28:06.905Z,100157.33
2023-03-28T02:30:19.984Z,100163.50
2023-03-28T02:32:34.087Z,100161.09
2023-03-28T02:34:48.904Z,100168.11
2023-03-28T02:37:15.920Z,100171.31
2023-03-28T02:39:34.443Z,100170.12
2023-03-28T02:42:11.882Z,100170.78
2023-03-28T02:44:46.045Z,100173.01
2023-03-28T02:47:26.143Z,100175.25
2023-03-28T02:49:50.826Z,100174.20
2023-03-28T02:52:35.081Z,100174.70
2023-03-28T02:55:02.072Z,100170.79
2023-03-28T02:57:46.703Z,100181.05
2023-03-28T03:00:13.336Z,100180.54
2023-03-28T03:02:28.884Z,100181.21
2023-03-28T03:04:41.587Z,100178.26
2023-03-28T03:06:54.476Z,100176.54
2023-03-28T03:09:08.203Z,100172.25
2023-03-28T03:11:21.422Z,100177.17
2023-03-28T03:13:34.057Z,100181.09
2023-03-28T03:15:46.595Z,100184.15
2023-03-28T03:17:59.610Z,100186.02
2023-03-28T03:20:12.308Z,100183.27
2023-03-28T03:22:25.647Z,100186.67
2023-03-28T03:24:39.199Z,100186.84
2023-03-28T03:26:51.729Z,100188.37
2023-03-28T03:29:04.511Z,100187.84
2023-03-28T03:31:17.500Z,100196.74
2023-03-28T03:33:32.277Z,100193.64
2023-03-28T03:35:48.152Z,100195.35
2023-03-28T03:38:00.887Z,100193.14
2023-03-28T03:40:14.015Z,100189.02
2023-03-28T03:42:26.548Z,100195.17
2023-03-28T03:44:39.310Z,100199.48
2023-03-28T03:46:51.846Z,100206.84
2023-03-28T03:49:04.502Z,100201.89
2023-03-28T03:51:17.811Z,100203.25
2023-03-28T03:53:30.370Z,100206.84
2023-03-28T03:55:43.410Z,100210.08
2023-03-28T03:57:56.127Z,100207.66
2023-03-28T04:00:12.298Z,100208.02
2023-03-28T04:02:24.987Z,100210.57
2023-03-28T04:04:40.454Z,100209.34
2023-03-28T04:06:53.086Z,100212.81
2023-03-28T04:09:07.687Z,100223.25
2023-03-28T04:11:20.264Z,100229.58
2023-03-28T04:13:32.873Z,100237.96
2023-03-28T04:15:47.560Z,100243.45
2023-03-28T04:18:01.807Z,100246.52
2023-03-28T04:20:17.453Z,100255.23
2023-03-28T04:22:30.789Z,100259.70
2023-03-28T04:24:44.617Z,100271.34
2023-03-28T04:26:57.227Z,100269.16
2023-03-28T04:29:10.432Z,100270.76
2023-03-28T04:31:29.468Z,100275.94
2023-03-28T04:33:45.310Z,100277.14
2023-03-28T04:36:02.826Z,100282.81
2023-03-28T04:38:20.634Z,100281.11
2023-03-28T04:40:34.019Z,100284.87
2023-03-28T04:42:46.793Z,100285.89
2023-03-28T04:44:59.333Z,100293.77
2023-03-28T04:47:12.797Z,100295.30
2023-03-28T04:49:26.433Z,100300.09
2023-03-28T04:51:39.089Z,100303.16
2023-03-28T04:53:51.757Z,100308.45
2023-03-28T04:56:05.727Z,100307.77
2023-03-28T04:58:21.048Z,100315.28
2023-03-28T05:00:33.643Z,100327.59
2023-03-28T05:02:47.727Z,100328.10
2023-03-28T05:05:00.445Z,100339.20
2023-03-28T05:07:14.011Z,100333.58
2023-03-28T05:09:26.599Z,100337.84
2023-03-28T05:11:39.874Z,100341.59
2023-03-28T05:13:52.352Z,100344.98
2023-03-28T05:16:05.574Z,100349.30
2023-03-28T05:18:18.148Z,100355.09
2023-03-28T05:20:31.773Z,100361.08
2023-03-28T05:22:44.511Z,100369.29
2023-03-28T05:24:57.099Z,100368.10
2023-03-28T05:27:09.742Z,100365.91
2023-03-28T05:29:22.314Z,100371.04
2023-03-28T05:31:34.895Z,100377.04
2023-03-28T05:33:47.445Z,100380.29
2023-03-28T05:36:00.489Z,100381.48
2023-03-28T05:38:14.285Z,100387.61
2023-03-28T05:40:27.011Z,100392.58
2023-03-28T05:42:39.891Z,100398.21
2023-03-28T05:44:52.472Z,100401.13
2023-03-28T05:47:05.225Z,100405.03
2023-03-28T05:49:17.905Z,100407.94
2023-03-28T05:51:30.613Z,100410.67
2023-03-28T05:53:43.167Z,100413.73
2023-03-28T05:55:55.674Z,100418.50
2023-03-28T05:58:08.329Z,100421.40
2023-03-28T06:00:21.184Z,100424.96
2023-03-28T06:02:33.964Z,100427.36
2023-03-28T06:04:46.898Z,100434.02
2023-03-28T06:07:00.938Z,100436.56
2023-03-28T06:09:15.724Z,100440.83
2023-03-28T06:11:28.284Z,100442.52
2023-03-28T06:13:40.784Z,100447.48
2023-03-28T06:15:53.496Z,100445.08
2023-03-28T06:18:06.044Z,100452.08
2023-03-28T06:20:19.084Z,100456.17
2023-03-28T06:22:31.719Z,100459.05
2023-03-28T06:24:44.333Z,100462.99
2023-03-28T06:26:57.090Z,100471.73
2023-03-28T06:29:12.056Z,100475.46
2023-03-28T06:31:24.954Z,100479.05
2023-03-28T06:33:40.902Z,100480.95
2023-03-28T06:35:53.492Z,100488.14
2023-03-28T06:38:06.205Z,100493.95
2023-03-28T06:40:19.337Z,100499.95
2023-03-28T06:42:31.950Z,100500.63
2023-03-28T06:44:44.552Z,100506.27
2023-03-28T06:46:57.168Z,100507.81
2023-03-28T06:49:09.722Z,100511.73
2023-03-28T06:51:22.282Z,100523.68
2023-03-28T06:53:36.114Z,100520.77
2023-03-28T06:55:53.576Z,100528.80
2023-03-28T06:58:06.697Z,100530.35
2023-03-28T07:00:19.714Z,100534.92
2023-03-28T07:02:32.428Z,100539.86
2023-03-28T07:04:45.069Z,100536.61
2023-03-28T07:06:57.630Z,100543.27
2023-03-28T07:09:10.588Z,100544.29
2023-03-28T07:11:23.432Z,100551.73
2023-03-28T07:13:36.237Z,100558.35
2023-03-28T07:15:59.436Z,100561.10
2023-03-28T07:18:12.002Z,100566.96
2023-03-28T07:20:26.040Z,100575.71
2023-03-28T07:22:38.550Z,100579.30
2023-03-28T07:24:51.024Z,100581.34
2023-03-28T07:27:14.611Z,100582.55
2023-03-28T07:29:27.910Z,100585.09
2023-03-28T07:31:41.081Z,100587.83
2023-03-28T07:33:55.347Z,100593.13
2023-03-28T07:36:14.336Z,100598.40
2023-03-28T07:38:26.978Z,100595.97
2023-03-28T07:40:39.575Z,100597.83
2023-03-28T07:42:52.230Z,100602.26
2023-03-28T07:45:05.110Z,100606.20
2023-03-28T07:47:18.202Z,100611.36
2023-03-28T07:49:30.965Z,100609.01
2023-03-28T07:51:43.787Z,100611.94
2023-03-28T07:53:56.294Z,100613.84
2023-03-28T07:56:10.513Z,100616.23
2023-03-28T07:58:23.699Z,100622.89
2023-03-28T08:00:36.678Z,100617.73
2023-03-28T08:02:50.954Z,100622.12
2023-03-28T08:05:03.840Z,100618.63
2023-03-28T08:07:16.899Z,100628.16
2023-03-28T08:09:29.465Z,100628.75
2023-03-28T08:11:43.615Z,100621.52
2023-03-28T08:13:56.174Z,100624.09
2023-03-28T08:16:09.488Z,100629.75
2023-03-28T08:18:24.412Z,100628.77
2023-03-28T08:20:37.316Z,100620.98
2023-03-28T08:22:49.856Z,100624.91
2023-03-28T08:25:02.540Z,100628.77
2023-03-28T08:27:15.086Z,100631.85
2023-03-28T08:29:27.662Z,100639.70
2023-03-28T08:31:40.383Z,100641.15
2023-03-28T08:33:54.703Z,100648.70
2023-03-28T08:36:09.062Z,100651.79
2023-03-28T08:38:21.925Z,100657.83
2023-03-28T08:40:40.237Z,100648.35
2023-03-28T08:43:11.445Z,100647.88
2023-03-28T08:45:39.055Z,100645.66
2023-03-28T08:48:08.039Z,100648.19
2023-03-28T08:50:43.394Z,100646.28
2023-03-28T08:52:57.079Z,100657.52
2023-03-28T08:55:30.682Z,100685.27
2023-03-28T08:57:45.271Z,100704.13
2023-03-28T09:00:17.175Z,100698.79
2023-03-28T09:02:30.049Z,100688.83
2023-03-28T09:04:42.720Z,100685.27
2023-03-28T09:07:03.363Z,100680.44
2023-03-28T09:09:27.189Z,100679.38
2023-03-28T09:11:55.002Z,100675.96
2023-03-28T09:14:33.541Z,100672.41
2023-03-28T09:17:10.207Z,100673.46
2023-03-28T09:19:54.931Z,100667.71
2023-03-28T09:22:22.506Z,100685.47
2023-03-28T09:25:13.384Z,100710.33
2023-03-28T09:27:37.690Z,100708.46
2023-03-28T09:29:53.944Z,100706.55
2023-03-28T09:32:18.427Z,100708.71
2023-03-28T09:34:39.988Z,100705.36
2023-03-28T09:36:55.561Z,100700.20
2023-03-28T09:39:21.877Z,100697.41
2023-03-28T09:41:54.406Z,100695.36
2023-03-28T09:44:14.911Z,100698.13
2023-03-28T09:46:43.366Z,100691.02
2023-03-28T09:48:56.678Z,100709.27
2023-03-28T09:51:16.625Z,100709.41
2023-03-28T09:53:34.506Z,100708.45
2023-03-28T09:55:57.967Z,100720.85
2023-03-28T09:58:17.634Z,100727.00
2023-03-28T10:00:34.930Z,100720.49
2023-03-28T10:02:52.860Z,100726.33
2023-03-28T10:05:34.672Z,100727.89
2023-03-28T10:07:48.014Z,100723.98
2023-03-28T10:10:10.848Z,100723.73
2023-03-28T10:12:33.743Z,100724.98
2023-03-28T10:14:47.411Z,100731.63
2023-03-28T10:17:29.651Z,100738.64
2023-03-28T10:19:45.479Z,100745.99
2023-03-28T10:22:01.918Z,100749.92
2023-03-28T10:24:20.226Z,100749.17
2023-03-28T10:26:33.774Z,100753.11
2023-03-28T10:28:46.463Z,100747.35
2023-03-28T10:31:01.673Z,100739.84
2023-03-28T10:33:17.858Z,100742.46
2023-03-28T10:35:30.958Z,100739.88
2023-03-28T10:37:46.726Z,100746.59
2023-03-28T10:40:07.716Z,100750.92
2023-03-28T10:42:22.767Z,100749.72
2023-03-28T10:44:36.492Z,100749.86
2023-03-28T10:46:49.219Z,100743.70
2023-03-28T10:49:13.500Z,100750.46
2023-03-28T10:51:26.998Z,100746.44
2023-03-28T10:53:57.610Z,100745.81
2023-03-28T10:56:23.044Z,100751.60
2023-03-28T10:58:46.872Z,100760.75
2023-03-28T11:01:24.937Z,100766.95
2023-03-28T11:03:40.721Z,100772.38
2023-03-28T11:06:08.644Z,100782.52
2023-03-28T11:08:28.585Z,100803.95
2023-03-28T11:11:06.113Z,100810.92
2023-03-28T11:13:43.111Z,100812.90
2023-03-28T11:16:04.384Z,100811.05
2023-03-28T11:18:22.567Z,100803.70
2023-03-28T11:20:44.041Z,100799.88
2023-03-28T11:23:55.038Z,100793.59
2023-03-28T11:26:14.548Z,100795.54
2023-03-28T11:28:53.177Z,100798.92
2023-03-28T11:31:09.068Z,100803.77
2023-03-28T11:33:32.362Z,100798.14
2023-03-28T11:35:52.289Z,100792.46
2023-03-28T11:38:14.961Z,100795.83
2023-03-28T11:40:43.480Z,100800.80
2023-03-28T11:43:00.392Z,100810.33
2023-03-28T11:45:49.617Z,100815.29
2023-03-28T11:48:12.561Z,100830.78
2023-03-28T11:50:51.433Z,100843.40
2023-03-28T11:53:18.137Z,100839.17
2023-03-28T11:55:39.272Z,100832.66
2023-03-28T11:58:02.729Z,100826.63
2023-03-28T12:00:33.754Z,100831.31
2023-03-28T12:02:51.655Z,100827.27
2023-03-28T12:05:19.274Z,100829.23
2023-03-28T12:07:43.179Z,100829.55
2023-03-28T12:10:09.896Z,100829.94
2023-03-28T12:12:30.871Z,100822.79
2023-03-28T12:15:05.339Z,100827.17
2023-03-28T12:17:25.358Z,100849.49
2023-03-28T12:19:41.112Z,100858.72
2023-03-28T12:22:02.069Z,100876.41
2023-03-28T12:24:44.564Z,100874.60
2023-03-28T12:27:17.115Z,100857.18
2023-03-28T12:29:38.545Z,100860.15
2023-03-28T12:31:58.406Z,100859.73
2023-03-28T12:34:27.977Z,100853.40
2023-03-28T12:36:51.792Z,100853.56
2023-03-28T12:39:21.778Z,100854.54
2023-03-28T12:41:37.670Z,100851.45
2023-03-28T12:44:03.058Z,100847.39
2023-03-28T12:46:25.096Z,100842.13
2023-03-28T12:48:45.700Z,100835.42
2023-03-28T12:51:26.120Z,100834.13
2023-03-28T12:54:15.730Z,100832.95
2023-03-28T12:56:28.321Z,100836.19
2023-03-28T12:58:41.334Z,100836.02
2023-03-28T13:01:16.975Z,100831.84
2023-03-28T13:03:55.706Z,100825.82
2023-03-28T13:06:24.666Z,100833.19
2023-03-28T13:08:46.531Z,100823.34
2023-03-28T13:11:16.699Z,100832.85
2023-03-28T13:13:59.052Z,100842.95
2023-03-28T13:16:16.983Z,100845.65
2023-03-28T13:18:33.744Z,100852.54
2023-03-28T13:20:51.927Z,100845.10
2023-03-28T13:23:07.942Z,100845.82
2023-03-28T13:25:27.288Z,100846.33
2023-03-28T13:27:39.942Z,100854.16
2023-03-28T13:30:03.717Z,100866.34
2023-03-28T13:32:21.030Z,100874.68
2023-03-28T13:34:35.476Z,100884.64
2023-03-28T13:36:54.870Z,100895.95
2023-03-28T13:39:26.506Z,100902.79
2023-03-28T13:41:41.751Z,100891.90
2023-03-28T13:43:57.591Z,100887.15
2023-03-28T13:46:18.600Z,100887.60
2023-03-28T13:48:40.099Z,100880.34
2023-03-28T13:50:53.609Z,100883.29
2023-03-28T13:53:06.482Z,100877.55
2023-03-28T13:55:27.872Z,100879.64
2023-03-28T13:57:40.532Z,100874.09
2023-03-28T13:59:58.409Z,100869.08
2023-03-28T14:02:18.478Z,100872.27
2023-03-28T14:04:33.957Z,100874.20
2023-03-28T14:06:47.608Z,100875.45
2023-03-28T14:09:02.608Z,100873.12
2023-03-28T14:11:19.796Z,100864.31
2023-03-28T14:13:33.580Z,100869.44
2023-03-28T14:15:46.625Z,100870.53
2023-03-28T14:18:00.863Z,100868.17
2023-03-28T14:20:17.892Z,100865.75
2023-03-28T14:22:31.974Z,100873.84
2023-03-28T14:24:50.411Z,100877.98
2023-03-28T14:27:11.832Z,100891.17
2023-03-28T14:29:25.940Z,100895.56
2023-03-28T14:31:41.640Z,100902.56
2023-03-28T14:33:54.217Z,100902.23
2023-03-28T14:36:07.481Z,100902.05
2023-03-28T14:38:29.300Z,100906.27
2023-03-28T14:40:45.636Z,100906.25
2023-03-28T14:43:06.401Z,100908.23
2023-03-28T14:45:18.977Z,100910.52
2023-03-28T14:47:33.348Z,100912.57
2023-03-28T14:49:46.850Z,100916.30
2023-03-28T14:52:03.350Z,100919.37
2023-03-28T14:54:23.445Z,100918.48
2023-03-28T14:56:36.881Z,100924.85
2023-03-28T14:58:51.237Z,100926.86
2023-03-28T15:01:06.200Z,100926.12
2023-03-28T15:03:24.395Z,100934.64
2023-03-28T15:05:37.722Z,100937.14
2023-03-28T15:08:00.965Z,100940.11
2023-03-28T15:10:23.557Z,100939.69
2023-03-28T15:12:47.130Z,100942.69
2023-03-28T15:15:03.194Z,100949.61
2023-03-28T15:17:20.923Z,100950.15
2023-03-28T15:19:40.329Z,100956.35
2023-03-28T15:22:00.308Z,100960.33
2023-03-28T15:24:18.012Z,100958.96
2023-03-28T15:26:35.762Z,100959.52
2023-03-28T15:28:49.070Z,100966.20
2023-03-28T15:31:03.880Z,100967.77
2023-03-28T15:33:26.153Z,100966.58
2023-03-28T15:35:40.034Z,100966.77
2023-03-28T15:38:00.428Z,100971.56
2023-03-28T15:40:23.001Z,100968.32
2023-03-28T15:42:36.310Z,100974.81
2023-03-28T15:44:57.798Z,100975.34
2023-03-28T15:47:20.676Z,100972.23
2023-03-28T15:49:37.766Z,100978.25
2023-03-28T15:51:54.691Z,100974.77
2023-03-28T15:54:10.703Z,100973.52
2023-03-28T15:56:33.906Z,100972.91
2023-03-28T15:58:46.744Z,100969.72
2023-03-28T16:01:23.071Z,100972.02
2023-03-28T16:03:35.873Z,100973.13
2023-03-28T16:05:50.898Z,100973.02
2023-03-28T16:08:22.014Z,100978.64
2023-03-28T16:10:34.583Z,100973.86
2023-03-28T16:12:48.444Z,100978.51
2023-03-28T16:15:02.213Z,100978.84
2023-03-28T16:17:15.221Z,100986.42
2023-03-28T16:19:28.896Z,100989.52
2023-03-28T16:21:41.406Z,100990.72
2023-03-28T16:23:54.011Z,100997.59
2023-03-28T16:26:06.924Z,101003.45
2023-03-28T16:28:19.523Z,101008.49
2023-03-28T16:30:42.608Z,101007.19
2023-03-28T16:32:56.034Z,101012.95
2023-03-28T16:35:09.733Z,101011.30
2023-03-28T16:37:22.346Z,101018.05
2023-03-28T16:39:36.031Z,101018.61
2023-03-28T16:41:48.570Z,101026.88
2023-03-28T16:44:01.137Z,101028.63
2023-03-28T16:46:13.745Z,101027.80
2023-03-28T16:48:27.099Z,101030.90
2023-03-28T16:50:39.682Z,101032.46
2023-03-28T16:52:52.462Z,101033.85
2023-03-28T16:55:07.443Z,101035.23
2023-03-28T16:57:21.239Z,101042.28
2023-03-28T16:59:34.049Z,101042.97
2023-03-28T17:01:47.525Z,101044.34
2023-03-28T17:04:00.250Z,101048.64
2023-03-28T17:06:13.664Z,101055.50
2023-03-28T17:08:26.287Z,101053.62
2023-03-28T17:10:41.278Z,101056.00
2023-03-28T17:12:53.965Z,101059.27
2023-03-28T17:15:08.838Z,101060.45
2023-03-28T17:17:21.483Z,101059.43
2023-03-28T17:19:34.710Z,101061.30
2023-03-28T17:21:47.276Z,101060.27
2023-03-28T17:23:59.756Z,101063.85
2023-03-28T17:26:13.296Z,101065.90
2023-03-28T17:28:27.763Z,101069.98
2023-03-28T17:30:40.620Z,101072.54
2023-03-28T17:32:53.695Z,101071.67
2023-03-28T17:35:06.806Z,101078.16
2023-03-28T17:37:22.221Z,101080.88
2023-03-28T17:39:34.815Z,101083.27
2023-03-28T17:41:47.329Z,101083.06
2023-03-28T17:43:59.934Z,101083.72
2023-03-28T17:46:12.855Z,101092.58
2023-03-28T17:48:25.808Z,101090.66
2023-03-28T17:50:38.779Z,101094.90
2023-03-28T17:52:51.763Z,101094.02
2023-03-28T17:55:06.221Z,101098.61
2023-03-28T17:57:18.829Z,101100.12
2023-03-28T17:59:31.441Z,101103.50
2023-03-28T18:01:45.585Z,101105.00
2023-03-28T18:03:58.330Z,101108.89
2023-03-28T18:06:12.913Z,101108.34
2023-03-28T18:08:29.560Z,101110.01
2023-03-28T18:10:42.841Z,101113.89
2023-03-28T18:12:55.374Z,101113.00
2023-03-28T18:15:08.118Z,101118.28
2023-03-28T18:17:20.670Z,101115.85
2023-03-28T18:19:33.249Z,101115.30
2023-03-28T18:21:46.633Z,101118.19
2023-03-28T18:23:59.303Z,101120.55
2023-03-28T18:26:11.983Z,101122.58
2023-03-28T18:28:24.626Z,101122.89
2023-03-28T18:30:37.704Z,101133.46
2023-03-28T18:32:50.346Z,101135.13
2023-03-28T18:35:07.071Z,101136.96
2023-03-28T18:37:19.683Z,101140.32
2023-03-28T18:39:32.286Z,101137.56
2023-03-28T18:41:44.943Z,101139.56
2023-03-28T18:43:57.636Z,101143.81
2023-03-28T18:46:15.487Z,101141.57
2023-03-28T18:48:29.068Z,101146.16
2023-03-28T18:50:42.124Z,101150.41
2023-03-28T18:52:54.742Z,101153.44
2023-03-28T18:55:09.305Z,101156.47
2023-03-28T18:57:22.088Z,101153.66
2023-03-28T18:59:34.765Z,101152.42
2023-03-28T19:01:51.496Z,101153.05
2023-03-28T19:04:04.503Z,101157.74
2023-03-28T19:06:17.283Z,101157.67
2023-03-28T19:08:29.974Z,101156.63
2023-03-28T19:10:46.453Z,101155.55
2023-03-28T19:12:58.972Z,101156.51
2023-03-28T19:15:12.126Z,101155.61
2023-03-28T19:17:24.663Z,101153.67
2023-03-28T19:19:37.514Z,101150.73
2023-03-28T19:21:51.785Z,101148.44
2023-03-28T19:24:04.683Z,101149.06
2023-03-28T19:26:18.330Z,101148.65
2023-03-28T19:28:31.306Z,101149.30
2023-03-28T19:30:44.128Z,101151.79
2023-03-28T19:32:56.865Z,101149.33
2023-03-28T19:35:10.115Z,101150.63
2023-03-28T19:37:22.728Z,101155.48
2023-03-28T19:39:35.285Z,101155.27
2023-03-28T19:41:47.836Z,101153.33
2023-03-28T19:44:00.524Z,101154.80
2023-03-28T19:46:25.042Z,101157.98
2023-03-28T19:48:42.402Z,101159.55
2023-03-28T19:50:55.116Z,101158.77
2023-03-28T19:53:07.722Z,101156.48
2023-03-28T19:55:20.303Z,101155.23
2023-03-28T19:57:33.041Z,101157.39
2023-03-28T19:59:45.707Z,101158.17
2023-03-28T20:01:58.338Z,101163.06
2023-03-28T20:04:11.933Z,101164.17
2023-03-28T20:06:24.552Z,101162.07
2023-03-28T20:08:37.913Z,101159.77
2023-03-28T20:10:51.540Z,101158.20
2023-03-28T20:13:04.372Z,101150.83
2023-03-28T20:15:17.080Z,101153.66
2023-03-28T20:17:29.788Z,101155.46
2023-03-28T20:19:42.476Z,101156.59
2023-03-28T20:21:55.120Z,101154.24
2023-03-28T20:24:08.065Z,101153.11
2023-03-28T20:26:26.947Z,101150.48
2023-03-28T20:28:41.526Z,101143.38
2023-03-28T20:30:54.179Z,101141.12
2023-03-28T20:33:07.395Z,101144.11
2023-03-28T20:35:19.971Z,101142.21
2023-03-28T20:37:33.187Z,101141.02
2023-03-28T20:39:48.212Z,101141.02
2023-03-28T20:42:05.483Z,101145.23
2023-03-28T20:44:20.057Z,101146.13
2023-03-28T20:46:36.740Z,101145.81
2023-03-28T20:48:56.786Z,101146.38
2023-03-28T20:51:15.825Z,101147.54
2023-03-28T20:53:33.161Z,101148.88
2023-03-28T20:55:45.781Z,101149.52
2023-03-28T20:57:58.621Z,101149.67
2023-03-28T21:00:14.674Z,101146.42
2023-03-28T21:02:33.314Z,101145.72
2023-03-28T21:04:46.252Z,101145.20
2023-03-28T21:07:01.581Z,101150.14
2023-03-28T21:09:17.968Z,101147.23
2023-03-28T21:11:33.685Z,101147.73
2023-03-28T21:13:46.307Z,101148.71
2023-03-28T21:15:58.855Z,101149.38
2023-03-28T21:18:12.418Z,101154.73
2023-03-28T21:20:25.031Z,101155.80
2023-03-28T21:22:40.857Z,101151.77
2023-03-28T21:24:53.505Z,101154.81
2023-03-28T21:27:06.100Z,101156.01
2023-03-28T21:29:19.353Z,101157.36
2023-03-28T21:31:31.993Z,101159.39
2023-03-28T21:33:45.562Z,101160.89
2023-03-28T21:35:59.412Z,101158.64
2023-03-28T21:38:12.005Z,101160.33
2023-03-28T21:40:24.586Z,101159.48
2023-03-28T21:42:37.275Z,101163.52
2023-03-28T21:44:49.830Z,101165.88
2023-03-28T21:47:02.383Z,101165.12
2023-03-28T21:49:14.966Z,101167.30
2023-03-28T21:51:27.677Z,101168.28
2023-03-28T21:53:41.870Z,101169.27
2023-03-28T21:55:56.162Z,101166.57
2023-03-28T21:58:08.724Z,101167.10
2023-03-28T22:00:21.409Z,101164.02
2023-03-28T22:02:34.101Z,101165.83
2023-03-28T22:04:47.151Z,101164.56
2023-03-28T22:06:59.709Z,101166.41
2023-03-28T22:09:12.281Z,101166.57
2023-03-28T22:11:30.002Z,101170.45
2023-03-28T22:13:44.726Z,101171.39
2023-03-28T22:15:59.904Z,101168.09
2023-03-28T22:18:13.324Z,101169.55
2023-03-28T22:20:28.105Z,101169.15
2023-03-28T22:22:49.022Z,101165.31
2023-03-28T22:25:04.195Z,101161.77
2023-03-28T22:27:17.936Z,101165.05
2023-03-28T22:29:31.615Z,101165.13
2023-03-28T22:31:44.213Z,101168.14
2023-03-28T22:33:56.947Z,101171.70
2023-03-28T22:36:10.227Z,101169.34
2023-03-28T22:38:22.861Z,101174.42
2023-03-28T22:40:35.520Z,101174.25
2023-03-28T22:42:48.256Z,101170.00
2023-03-28T22:45:01.196Z,101171.52
2023-03-28T22:47:14.797Z,101168.79
2023-03-28T22:49:29.949Z,101170.47
2023-03-28T22:51:48.877Z,101167.52
2023-03-28T22:54:03.112Z,101166.48
2023-03-28T22:56:15.679Z,101168.98
2023-03-28T22:58:28.156Z,101171.15
2023-03-28T23:00:40.759Z,101168.20
2023-03-28T23:02:53.339Z,101164.92
2023-03-28T23:05:07.784Z,101161.45
2023-03-28T23:07:20.802Z,101160.52
2023-03-28T23:09:33.422Z,101160.98
2023-03-28T23:11:46.168Z,101154.14
2023-03-28T23:13:58.745Z,101157.36
2023-03-28T23:16:11.334Z,101155.42
2023-03-28T23:18:23.935Z,101151.46
2023-03-28T23:20:38.096Z,101150.10
2023-03-28T23:22:50.668Z,101147.87
2023-03-28T23:25:03.648Z,101146.14
2023-03-28T23:27:17.393Z,101144.57
2023-03-28T23:29:29.940Z,101146.92
2023-03-28T23:31:42.533Z,101147.66
2023-03-28T23:33:55.089Z,101139.42
2023-03-28T23:36:08.058Z,101140.98
2023-03-28T23:38:20.606Z,101143.23
2023-03-28T23:40:33.595Z,101145.61
2023-03-28T23:42:46.628Z,101141.12
2023-03-28T23:44:59.269Z,101138.61
2023-03-28T23:47:12.523Z,101141.29
2023-03-28T23:49:25.175Z,101139.35
2023-03-28T23:51:37.788Z,101140.31
2023-03-28T23:53:50.879Z,101133.20
2023-03-28T23:56:03.847Z,101134.77
2023-03-28T23:58:16.799Z,101134.29
